עמוד ראשי
METAR-TAF:

METAR-TAF

שדות תעופה :

Petersburg, אלסקה, ארצות הברית

קו רוחב: 56-49N, קו אורך: 132-58W, גובה: 0מטר

תצפית מזג אוויר נוכחית

הדו"ח נערך לפני 48דקות, בשעה 09:56 UTC
רוח רגועה
טמפרטורת 12 צלסיוס
לחות 100%
לחץ 1015 hPa
ראות: 16.1קילומטר
מעונן בגובה 4600רגל

METAR: PAPG 240956Z AUTO 00000KT 10SM OVC046 12/12 A2997 RMK AO2 SLP152 T01170117

זמן: 02:44 (10:44 UTC)

תחזית

הדו"ח נערך לפני 5 שעות ו 5דקות, בשעה 05:39 UTC
תחזית בתוקף מ 24 ב 06 UTC עד 25 ב 06 UTC
רוח 4קשר עם כיוונים משתנים
ראות: 10קילומטר
מעט עננים בגובה 800רגל
עננים בינוניים בגובה 2000רגל
מעונן בגובה 3000רגל
מ 24 ב 1000UTC
רוח 2קשר עם כיוונים משתנים
ראות: 9.7קילומטר
עננים פזורים בגובה 600רגל
מעונן בגובה 1200רגל
גשם קל, אד
מ 24 ב 1900UTC
רוח 4קשר עם כיוונים משתנים
ראות: 10קילומטר
עננים בינוניים בגובה 2500רגל
מעונן בגובה 3500רגל

TAF: PAPG 240539Z 2406/2506 VRB04KT P6SM FEW008 BKN020 OVC030 FM241000 VRB02KT 6SM -RA BR SCT006 OVC012 FM241900 VRB04KT P6SM BKN025 OVC035 AMD LTD TO CLD VIS AND WIND 2406/2415

תצפיות ותחזיות מזג אוויר לגבי יותר מ- 4,000 שדות תעופה ברחבי העולם. דוחות METAR ו- TAF.

התחנות הזמינות מסומנות בנקודות צהובות ואדומות על גבי המפה.

העבר את העכבר לנקודה הצבעונית על מנת לראות את שם התחנה.

לאחר מכן, לחץ כדי לראות את תוכן ואת תחזיות מזג האוויר.

כדי לשנות את המפה: לחץ על הכפתורים הירוקים עם הפלוס השחור כדי להתקרב; על הכפתור הירוק עם המקף כדי להתרחק; או בחיצים הירוקים למפות סמוכות.


METAR-TAF: